createdAt,value
2019-02-28T00:00:31.895Z,1028.95
2019-02-28T00:01:31.880Z,1028.92
2019-02-28T00:02:31.867Z,1028.92
2019-02-28T00:03:31.854Z,1028.88
2019-02-28T00:04:32.726Z,1028.87
2019-02-28T00:05:31.827Z,1028.86
2019-02-28T00:06:31.814Z,1028.89
2019-02-28T00:07:31.801Z,1028.88
2019-02-28T00:08:31.787Z,1028.85
2019-02-28T00:09:31.775Z,1028.83
2019-02-28T00:10:31.759Z,1028.82
2019-02-28T00:11:31.746Z,1028.83
2019-02-28T00:12:31.731Z,1028.84
2019-02-28T00:13:31.723Z,1028.79
2019-02-28T00:14:31.706Z,1028.75
2019-02-28T00:15:31.691Z,1028.74
2019-02-28T00:16:31.678Z,1028.75
2019-02-28T00:17:31.664Z,1028.75
2019-02-28T00:18:31.651Z,1028.73
2019-02-28T00:19:31.642Z,1028.79
2019-02-28T00:20:31.867Z,1028.77
2019-02-28T00:21:31.610Z,1028.76
2019-02-28T00:22:31.597Z,1028.76
2019-02-28T00:23:31.582Z,1028.72
2019-02-28T00:24:31.574Z,1028.76
2019-02-28T00:25:31.557Z,1028.66
2019-02-28T00:26:31.542Z,1028.62
2019-02-28T00:27:31.529Z,1028.59
2019-02-28T00:28:31.515Z,1028.61
2019-02-28T00:29:33.682Z,1028.59
2019-02-28T00:30:31.488Z,1028.56
2019-02-28T00:31:31.474Z,1028.58
2019-02-28T00:32:31.465Z,1028.56
2019-02-28T00:33:31.631Z,1028.52
2019-02-28T00:34:31.433Z,1028.52
2019-02-28T00:35:31.420Z,1028.5
2019-02-28T00:36:31.421Z,1028.48
2019-02-28T00:37:31.393Z,1028.45
2019-02-28T00:38:31.380Z,1028.4
2019-02-28T00:39:34.718Z,1028.4
2019-02-28T00:40:31.352Z,1028.38
2019-02-28T00:41:31.337Z,1028.38
2019-02-28T00:42:31.325Z,1028.38
2019-02-28T00:43:31.310Z,1028.39
2019-02-28T00:44:31.460Z,1028.31
2019-02-28T00:45:35.982Z,1028.26
2019-02-28T00:46:31.270Z,1028.26
2019-02-28T00:47:31.255Z,1028.23
2019-02-28T00:48:31.242Z,1028.21
2019-02-28T00:49:31.227Z,1028.21
2019-02-28T00:50:31.214Z,1028.22
2019-02-28T00:51:31.201Z,1028.26
2019-02-28T00:52:32.041Z,1028.24
2019-02-28T00:53:31.173Z,1028.23
2019-02-28T00:54:31.158Z,1028.2
2019-02-28T00:55:31.146Z,1028.15
2019-02-28T00:56:31.132Z,1028.07
2019-02-28T00:57:31.118Z,1028.09
2019-02-28T00:58:31.105Z,1028.08
2019-02-28T00:59:31.665Z,1028.01
2019-02-28T01:00:31.077Z,1028.05
2019-02-28T01:01:31.064Z,1028.02
2019-02-28T01:02:31.050Z,1028
2019-02-28T01:03:31.038Z,1028.03
2019-02-28T01:04:31.022Z,1028.02
2019-02-28T01:05:31.009Z,1028
2019-02-28T01:06:30.995Z,1027.99
2019-02-28T01:07:30.989Z,1027.97
2019-02-28T01:08:30.967Z,1027.95
2019-02-28T01:09:31.038Z,1027.99
2019-02-28T01:10:30.941Z,1027.96
2019-02-28T01:11:30.926Z,1027.92
2019-02-28T01:12:30.912Z,1027.89
2019-02-28T01:13:30.899Z,1027.89
2019-02-28T01:14:32.340Z,1027.89
2019-02-28T01:15:30.873Z,1027.86
2019-02-28T01:16:31.108Z,1027.86
2019-02-28T01:17:30.844Z,1027.91
2019-02-28T01:18:34.298Z,1027.84
2019-02-28T01:19:30.816Z,1027.85
2019-02-28T01:20:30.803Z,1027.84
2019-02-28T01:21:30.790Z,1027.81
2019-02-28T01:22:30.773Z,1027.81
2019-02-28T01:23:30.764Z,1027.76
2019-02-28T01:24:34.450Z,1027.73
2019-02-28T01:25:30.733Z,1027.75
2019-02-28T01:26:30.726Z,1027.75
2019-02-28T01:27:30.706Z,1027.72
2019-02-28T01:28:30.692Z,1027.68
2019-02-28T01:29:32.911Z,1027.64
2019-02-28T01:30:30.664Z,1027.62
2019-02-28T01:31:30.652Z,1027.61
2019-02-28T01:32:30.637Z,1027.59
2019-02-28T01:33:30.623Z,1027.54
2019-02-28T01:34:32.169Z,1027.53
2019-02-28T01:35:30.611Z,1027.52
2019-02-28T01:36:30.588Z,1027.48
2019-02-28T01:37:30.567Z,1027.5
2019-02-28T01:38:30.554Z,1027.5
2019-02-28T01:39:30.799Z,1027.42
2019-02-28T01:40:30.527Z,1027.41
2019-02-28T01:41:30.517Z,1027.41
2019-02-28T01:42:30.502Z,1027.4
2019-02-28T01:43:30.486Z,1027.39
2019-02-28T01:44:35.510Z,1027.38
2019-02-28T01:45:30.458Z,1027.35
2019-02-28T01:46:30.453Z,1027.31
2019-02-28T01:47:30.679Z,1027.27
2019-02-28T01:48:30.416Z,1027.27
2019-02-28T01:49:30.403Z,1027.33
2019-02-28T01:50:30.442Z,1027.33
2019-02-28T01:51:35.521Z,1027.37
2019-02-28T01:52:30.360Z,1027.33
2019-02-28T01:53:30.347Z,1027.32
2019-02-28T01:54:30.334Z,1027.33
2019-02-28T01:55:30.319Z,1027.29
2019-02-28T01:56:30.306Z,1027.27
2019-02-28T01:57:30.292Z,1027.22
2019-02-28T01:58:30.277Z,1027.23
2019-02-28T01:59:30.264Z,1027.27
2019-02-28T02:00:30.250Z,1027.24
2019-02-28T02:01:30.944Z,1027.28
2019-02-28T02:02:30.223Z,1027.25
2019-02-28T02:03:30.209Z,1027.22
2019-02-28T02:04:30.195Z,1027.22
2019-02-28T02:05:30.182Z,1027.18
2019-02-28T02:06:30.168Z,1027.19
2019-02-28T02:07:30.501Z,1027.15
2019-02-28T02:08:30.141Z,1027.08
2019-02-28T02:09:30.133Z,1027.05
2019-02-28T02:10:30.113Z,1027.05
2019-02-28T02:11:30.100Z,1026.99
2019-02-28T02:12:31.655Z,1027
2019-02-28T02:13:30.072Z,1026.98
2019-02-28T02:14:30.058Z,1026.95
2019-02-28T02:15:30.045Z,1026.96
2019-02-28T02:16:30.030Z,1026.93
2019-02-28T02:17:32.213Z,1026.92
2019-02-28T02:18:30.002Z,1026.89
2019-02-28T02:19:29.989Z,1026.92
2019-02-28T02:20:29.975Z,1026.9
2019-02-28T02:21:31.366Z,1026.86
2019-02-28T02:22:29.953Z,1026.82
2019-02-28T02:23:29.935Z,1026.78
2019-02-28T02:24:29.920Z,1026.78
2019-02-28T02:25:29.908Z,1026.83
2019-02-28T02:26:29.893Z,1026.83
2019-02-28T02:27:29.878Z,1026.85
2019-02-28T02:28:29.866Z,1026.81
2019-02-28T02:29:32.356Z,1026.82
2019-02-28T02:30:29.840Z,1026.8
2019-02-28T02:31:29.828Z,1026.78
2019-02-28T02:32:36.998Z,1026.78
2019-02-28T02:33:29.797Z,1026.81
2019-02-28T02:34:29.890Z,1026.79
2019-02-28T02:35:29.769Z,1026.75
2019-02-28T02:36:29.757Z,1026.81
2019-02-28T02:37:30.272Z,1026.83
2019-02-28T02:38:29.732Z,1026.84
2019-02-28T02:39:29.713Z,1026.84
2019-02-28T02:40:29.699Z,1026.8
2019-02-28T02:41:33.245Z,1026.81
2019-02-28T02:42:29.672Z,1026.79
2019-02-28T02:43:29.659Z,1026.76
2019-02-28T02:44:31.714Z,1026.74
2019-02-28T02:45:29.633Z,1026.76
2019-02-28T02:46:29.619Z,1026.75
2019-02-28T02:47:32.297Z,1026.73
2019-02-28T02:48:29.591Z,1026.69
2019-02-28T02:49:29.827Z,1026.7
2019-02-28T02:50:33.890Z,1026.66
2019-02-28T02:51:29.550Z,1026.68
2019-02-28T02:52:30.477Z,1026.66
2019-02-28T02:53:29.522Z,1026.64
2019-02-28T02:54:29.522Z,1026.6
2019-02-28T02:55:29.517Z,1026.58
2019-02-28T02:56:29.483Z,1026.54
2019-02-28T02:57:29.468Z,1026.54
2019-02-28T02:58:29.466Z,1026.54
2019-02-28T02:59:37.108Z,1026.57
2019-02-28T03:00:29.427Z,1026.62
2019-02-28T03:01:29.413Z,1026.53
2019-02-28T03:02:33.111Z,1026.51
2019-02-28T03:03:29.386Z,1026.53
2019-02-28T03:04:29.390Z,1026.47
2019-02-28T03:05:34.876Z,1026.38
2019-02-28T03:06:29.352Z,1026.39
2019-02-28T03:07:29.333Z,1026.37
2019-02-28T03:08:35.606Z,1026.33
2019-02-28T03:09:29.305Z,1026.31
2019-02-28T03:10:29.291Z,1026.34
2019-02-28T03:11:29.276Z,1026.31
2019-02-28T03:12:31.013Z,1026.33
2019-02-28T03:13:29.248Z,1026.38
2019-02-28T03:14:29.237Z,1026.39
2019-02-28T03:15:29.220Z,1026.35
2019-02-28T03:16:32.936Z,1026.33
2019-02-28T03:17:29.194Z,1026.29
2019-02-28T03:18:29.182Z,1026.31
2019-02-28T03:19:33.034Z,1026.28
2019-02-28T03:20:29.151Z,1026.26
2019-02-28T03:21:29.137Z,1026.28
2019-02-28T03:22:30.317Z,1026.27
2019-02-28T03:23:29.120Z,1026.27
2019-02-28T03:24:29.098Z,1026.24
2019-02-28T03:25:29.143Z,1026.3
2019-02-28T03:26:29.070Z,1026.3
2019-02-28T03:27:29.057Z,1026.29
2019-02-28T03:28:31.842Z,1026.24
2019-02-28T03:29:29.032Z,1026.22
2019-02-28T03:30:32.605Z,1026.16
2019-02-28T03:31:29.002Z,1026.17
2019-02-28T03:32:38.961Z,1026.2
2019-02-28T03:33:29.118Z,1026.18
2019-02-28T03:34:28.961Z,1026.13
2019-02-28T03:35:39.680Z,1026.15
2019-02-28T03:36:28.933Z,1026.16
2019-02-28T03:37:32.684Z,1026.14
2019-02-28T03:38:28.906Z,1026.12
2019-02-28T03:39:28.893Z,1026.12
2019-02-28T03:40:28.879Z,1026.08
2019-02-28T03:41:28.873Z,1026.07
2019-02-28T03:42:30.001Z,1026.04
2019-02-28T03:43:28.838Z,1026.04
2019-02-28T03:44:28.825Z,1026.07
2019-02-28T03:45:33.641Z,1026.01
2019-02-28T03:46:28.798Z,1025.93
2019-02-28T03:47:28.785Z,1025.94
2019-02-28T03:48:34.601Z,1025.93
2019-02-28T03:49:28.756Z,1025.94
2019-02-28T03:50:28.747Z,1025.94
2019-02-28T03:51:29.611Z,1025.91
2019-02-28T03:52:28.714Z,1025.87
2019-02-28T03:53:28.700Z,1025.84
2019-02-28T03:54:29.795Z,1025.91
2019-02-28T03:55:28.672Z,1025.92
2019-02-28T03:56:28.658Z,1025.89
2019-02-28T03:57:29.610Z,1025.89
2019-02-28T03:58:28.640Z,1025.85
2019-02-28T03:59:28.629Z,1025.83
2019-02-28T04:00:32.254Z,1025.86
2019-02-28T04:01:28.593Z,1025.82
2019-02-28T04:02:28.576Z,1025.85
2019-02-28T04:03:33.278Z,1025.81
2019-02-28T04:04:28.550Z,1025.82
2019-02-28T04:05:28.664Z,1025.85
2019-02-28T04:06:28.521Z,1025.87
2019-02-28T04:07:28.508Z,1025.88
2019-02-28T04:08:30.328Z,1025.83
2019-02-28T04:09:28.480Z,1025.79
2019-02-28T04:10:28.467Z,1025.86
2019-02-28T04:11:31.122Z,1025.87
2019-02-28T04:12:28.441Z,1025.86
2019-02-28T04:13:28.425Z,1025.82
2019-02-28T04:14:32.708Z,1025.84
2019-02-28T04:15:28.406Z,1025.77
2019-02-28T04:16:28.384Z,1025.72
2019-02-28T04:17:30.385Z,1025.78
2019-02-28T04:18:28.360Z,1025.69
2019-02-28T04:19:28.346Z,1025.7
2019-02-28T04:20:35.866Z,1025.71
2019-02-28T04:21:28.315Z,1025.72
2019-02-28T04:22:28.303Z,1025.7
2019-02-28T04:23:35.416Z,1025.72
2019-02-28T04:24:28.274Z,1025.68
2019-02-28T04:25:28.273Z,1025.63
2019-02-28T04:26:29.688Z,1025.67
2019-02-28T04:27:28.233Z,1025.62
2019-02-28T04:28:28.219Z,1025.66
2019-02-28T04:29:31.098Z,1025.68
2019-02-28T04:30:28.192Z,1025.7
2019-02-28T04:31:28.178Z,1025.7
2019-02-28T04:32:28.163Z,1025.7
2019-02-28T04:33:28.152Z,1025.66
2019-02-28T04:34:28.142Z,1025.63
2019-02-28T04:35:28.124Z,1025.7
2019-02-28T04:36:28.112Z,1025.72
2019-02-28T04:37:28.095Z,1025.72
2019-02-28T04:38:28.081Z,1025.71
2019-02-28T04:39:28.066Z,1025.68
2019-02-28T04:40:28.054Z,1025.7
2019-02-28T04:41:32.369Z,1025.73
2019-02-28T04:42:28.024Z,1025.73
2019-02-28T04:43:28.011Z,1025.76
2019-02-28T04:44:27.998Z,1025.74
2019-02-28T04:45:27.984Z,1025.7
2019-02-28T04:46:28.254Z,1025.69
2019-02-28T04:47:27.955Z,1025.66
2019-02-28T04:48:27.942Z,1025.63
2019-02-28T04:49:27.928Z,1025.59
2019-02-28T04:50:30.928Z,1025.56
2019-02-28T04:51:27.901Z,1025.57
2019-02-28T04:52:27.887Z,1025.53
2019-02-28T04:53:27.873Z,1025.55
2019-02-28T04:54:28.614Z,1025.57
2019-02-28T04:55:27.844Z,1025.55
2019-02-28T04:56:27.830Z,1025.58
2019-02-28T04:57:27.816Z,1025.53
2019-02-28T04:58:27.803Z,1025.55
2019-02-28T04:59:27.790Z,1025.49
2019-02-28T05:00:27.776Z,1025.51
2019-02-28T05:01:27.760Z,1025.47
2019-02-28T05:02:27.746Z,1025.43
2019-02-28T05:03:28.875Z,1025.49
2019-02-28T05:04:27.719Z,1025.49
2019-02-28T05:05:27.704Z,1025.45
2019-02-28T05:06:27.691Z,1025.41
2019-02-28T05:07:29.593Z,1025.4
2019-02-28T05:08:27.666Z,1025.4
2019-02-28T05:09:27.648Z,1025.35
2019-02-28T05:10:27.634Z,1025.33
2019-02-28T05:11:30.555Z,1025.27
2019-02-28T05:12:27.606Z,1025.29
2019-02-28T05:13:27.592Z,1025.26
2019-02-28T05:14:27.578Z,1025.24
2019-02-28T05:15:27.566Z,1025.26
2019-02-28T05:16:27.551Z,1025.23
2019-02-28T05:17:27.548Z,1025.25
2019-02-28T05:18:28.211Z,1025.24
2019-02-28T05:19:27.508Z,1025.25
2019-02-28T05:20:27.495Z,1025.32
2019-02-28T05:21:27.495Z,1025.34
2019-02-28T05:22:27.716Z,1025.36
2019-02-28T05:23:27.452Z,1025.41
2019-02-28T05:24:27.439Z,1025.42
2019-02-28T05:25:27.425Z,1025.46
2019-02-28T05:26:27.412Z,1025.44
2019-02-28T05:27:27.398Z,1025.45
2019-02-28T05:28:27.383Z,1025.45
2019-02-28T05:29:27.369Z,1025.45
2019-02-28T05:30:27.354Z,1025.43
2019-02-28T05:31:28.041Z,1025.46
2019-02-28T05:32:27.327Z,1025.45
2019-02-28T05:33:27.312Z,1025.47
2019-02-28T05:34:27.304Z,1025.46
2019-02-28T05:35:27.284Z,1025.5
2019-02-28T05:36:27.278Z,1025.48
2019-02-28T05:37:27.255Z,1025.51
2019-02-28T05:38:27.242Z,1025.52
2019-02-28T05:39:28.151Z,1025.48
2019-02-28T05:40:27.214Z,1025.47
2019-02-28T05:41:27.198Z,1025.55
2019-02-28T05:42:27.185Z,1025.53
2019-02-28T05:43:29.142Z,1025.53
2019-02-28T05:44:27.156Z,1025.48
2019-02-28T05:45:27.142Z,1025.46
2019-02-28T05:46:27.128Z,1025.38
2019-02-28T05:47:29.333Z,1025.33
2019-02-28T05:48:27.100Z,1025.35
2019-02-28T05:49:27.084Z,1025.33
2019-02-28T05:50:27.072Z,1025.32
2019-02-28T05:51:27.058Z,1025.3
2019-02-28T05:52:27.042Z,1025.29
2019-02-28T05:53:27.029Z,1025.29
2019-02-28T05:54:27.015Z,1025.27
2019-02-28T05:55:27.800Z,1025.29
2019-02-28T05:56:26.986Z,1025.25
2019-02-28T05:57:26.972Z,1025.26
2019-02-28T05:58:26.958Z,1025.26
2019-02-28T05:59:27.521Z,1025.26
2019-02-28T06:00:26.932Z,1025.25
2019-02-28T06:01:26.915Z,1025.2
2019-02-28T06:02:26.901Z,1025.23
2019-02-28T06:03:29.479Z,1025.16
2019-02-28T06:04:26.873Z,1025.16
2019-02-28T06:05:26.859Z,1025.16
2019-02-28T06:06:26.845Z,1025.13
2019-02-28T06:07:28.683Z,1025.15
2019-02-28T06:08:26.818Z,1025.15
2019-02-28T06:09:26.802Z,1025.13
2019-02-28T06:10:26.787Z,1025.09
2019-02-28T06:11:26.774Z,1025.11
2019-02-28T06:12:26.760Z,1025.06
2019-02-28T06:13:26.746Z,1025.02
2019-02-28T06:14:27.727Z,1024.93
2019-02-28T06:15:28.843Z,1024.93
2019-02-28T06:16:26.704Z,1024.97
2019-02-28T06:17:26.690Z,1024.93
2019-02-28T06:18:32.496Z,1024.91
2019-02-28T06:19:26.665Z,1024.91
2019-02-28T06:20:26.648Z,1024.9
2019-02-28T06:21:26.633Z,1024.88
2019-02-28T06:22:26.619Z,1024.85
2019-02-28T06:23:26.605Z,1024.8
2019-02-28T06:24:26.596Z,1024.8
2019-02-28T06:25:26.577Z,1024.77
2019-02-28T06:26:26.818Z,1024.74
2019-02-28T06:27:26.550Z,1024.65
2019-02-28T06:28:27.598Z,1024.56
2019-02-28T06:29:26.523Z,1024.42
2019-02-28T06:30:27.736Z,1024.31
2019-02-28T06:31:26.495Z,1024.17
2019-02-28T06:32:27.367Z,1024.03
2019-02-28T06:33:26.467Z,1023.84
2019-02-28T06:34:26.458Z,1023.72
2019-02-28T06:35:26.440Z,1023.6
2019-02-28T06:36:29.130Z,1023.42
2019-02-28T06:37:26.414Z,1023.26
2019-02-28T06:38:26.401Z,1023.15
2019-02-28T06:39:27.540Z,1023.03
2019-02-28T06:40:26.374Z,1022.92
2019-02-28T06:41:26.362Z,1022.77
2019-02-28T06:42:26.358Z,1022.61
2019-02-28T06:43:26.336Z,1022.52
2019-02-28T06:44:26.969Z,1022.34
2019-02-28T06:45:26.312Z,1022.3
2019-02-28T06:46:26.301Z,1022.23
2019-02-28T06:47:26.288Z,1022.1
2019-02-28T06:48:26.728Z,1021.98
2019-02-28T06:49:26.269Z,1021.85
2019-02-28T06:50:26.257Z,1021.75
2019-02-28T06:51:26.244Z,1021.65
2019-02-28T06:52:26.233Z,1021.57
2019-02-28T06:53:26.221Z,1021.46
2019-02-28T06:54:26.211Z,1021.38
2019-02-28T06:55:26.200Z,1021.3
2019-02-28T06:56:26.190Z,1021.22
2019-02-28T06:57:27.430Z,1021.13
2019-02-28T06:58:26.169Z,1021.05
2019-02-28T06:59:26.159Z,1020.97
2019-02-28T07:00:26.151Z,1020.86
2019-02-28T07:01:26.140Z,1020.78
2019-02-28T07:02:28.459Z,1020.68
2019-02-28T07:03:26.120Z,1020.61
2019-02-28T07:04:26.114Z,1020.54
2019-02-28T07:05:26.381Z,1020.38
2019-02-28T07:06:26.093Z,1020.29
2019-02-28T07:07:26.084Z,1020.12
2019-02-28T07:08:28.262Z,1020
2019-02-28T07:09:26.067Z,1019.9
2019-02-28T07:10:26.058Z,1019.79
2019-02-28T07:11:26.050Z,1019.67
2019-02-28T07:12:29.091Z,1019.51
2019-02-28T07:13:26.040Z,1019.35
2019-02-28T07:14:26.025Z,1019.29
2019-02-28T07:15:26.018Z,1019.16
2019-02-28T07:16:26.009Z,1019.03
2019-02-28T07:17:26.002Z,1018.97
2019-02-28T07:18:25.997Z,1018.78
2019-02-28T07:19:26.390Z,1018.75
2019-02-28T07:20:25.978Z,1018.67
2019-02-28T07:21:25.973Z,1018.59
2019-02-28T07:22:25.972Z,1018.48
2019-02-28T07:23:26.640Z,1018.38
2019-02-28T07:24:25.956Z,1018.31
2019-02-28T07:25:25.946Z,1018.25
2019-02-28T07:26:25.939Z,1018.17
2019-02-28T07:27:26.378Z,1018.21
2019-02-28T07:28:25.926Z,1018.24
2019-02-28T07:29:25.923Z,1018.33
2019-02-28T07:30:25.913Z,1018.33
2019-02-28T07:31:25.906Z,1018.27
2019-02-28T07:32:26.213Z,1018.26
2019-02-28T07:33:25.893Z,1018.28
2019-02-28T07:34:25.894Z,1018.27
2019-02-28T07:35:25.886Z,1018.28
2019-02-28T07:36:25.889Z,1018.31
2019-02-28T07:37:25.870Z,1018.34
2019-02-28T07:38:28.825Z,1018.31
2019-02-28T07:39:25.868Z,1018.25
2019-02-28T07:40:25.852Z,1018.22
2019-02-28T07:41:26.645Z,1018.09
2019-02-28T07:42:25.841Z,1018.14
2019-02-28T07:43:25.834Z,1018.12
2019-02-28T07:44:25.829Z,1018.1
2019-02-28T07:45:25.821Z,1018.07
2019-02-28T07:46:25.822Z,1018.09
2019-02-28T07:47:25.810Z,1018.13
2019-02-28T07:48:27.499Z,1018.21
2019-02-28T07:49:26.083Z,1018.24
2019-02-28T07:50:25.793Z,1018.22
2019-02-28T07:51:26.367Z,1018.26
2019-02-28T07:52:32.245Z,1018.27
2019-02-28T07:53:25.776Z,1018.22
2019-02-28T07:54:25.773Z,1018.21
2019-02-28T07:55:27.118Z,1018.23
2019-02-28T07:56:25.759Z,1018.32
2019-02-28T07:57:25.753Z,1018.5
2019-02-28T07:58:26.560Z,1018.78
2019-02-28T07:59:25.759Z,1019.13
2019-02-28T08:00:25.988Z,1019.38
2019-02-28T08:01:27.567Z,1019.59
2019-02-28T08:02:25.724Z,1019.79
2019-02-28T08:03:25.723Z,1019.93
2019-02-28T08:04:25.718Z,1020.14
2019-02-28T08:05:29.589Z,1020.27
2019-02-28T08:06:25.700Z,1020.41
2019-02-28T08:07:25.696Z,1020.5
2019-02-28T08:08:26.309Z,1020.72
2019-02-28T08:09:25.678Z,1020.74
2019-02-28T08:10:25.672Z,1020.84
2019-02-28T08:11:25.663Z,1020.92
2019-02-28T08:12:27.391Z,1021.03
2019-02-28T08:13:25.649Z,1021.07
2019-02-28T08:14:25.644Z,1021.12
2019-02-28T08:15:25.634Z,1021.21
2019-02-28T08:16:25.627Z,1021.24
2019-02-28T08:17:25.621Z,1021.34
2019-02-28T08:18:25.610Z,1021.34
2019-02-28T08:19:27.005Z,1021.42
2019-02-28T08:20:25.599Z,1021.48
2019-02-28T08:21:25.591Z,1021.52
2019-02-28T08:22:25.577Z,1021.56
2019-02-28T08:23:29.647Z,1021.56
2019-02-28T08:24:26.574Z,1021.64
2019-02-28T08:25:25.554Z,1021.7
2019-02-28T08:26:25.546Z,1021.7
2019-02-28T08:27:26.234Z,1021.68
2019-02-28T08:28:25.532Z,1021.68
2019-02-28T08:29:25.520Z,1021.71
2019-02-28T08:30:25.512Z,1021.72
2019-02-28T08:31:28.286Z,1021.72
2019-02-28T08:32:25.495Z,1021.69
2019-02-28T08:33:25.491Z,1021.74
2019-02-28T08:34:25.477Z,1021.72
2019-02-28T08:35:25.468Z,1021.69
2019-02-28T08:36:25.459Z,1021.71
2019-02-28T08:37:25.451Z,1021.64
2019-02-28T08:38:25.442Z,1021.69
2019-02-28T08:39:25.434Z,1021.67
2019-02-28T08:40:26.593Z,1021.65
2019-02-28T08:41:25.800Z,1021.64
2019-02-28T08:42:25.410Z,1021.61
2019-02-28T08:43:27.239Z,1021.65
2019-02-28T08:44:25.389Z,1021.67
2019-02-28T08:45:25.383Z,1021.65
2019-02-28T08:46:25.373Z,1021.66
2019-02-28T08:47:25.363Z,1021.67
2019-02-28T08:48:31.226Z,1021.68
2019-02-28T08:49:25.346Z,1021.56
2019-02-28T08:50:25.340Z,1021.63
2019-02-28T08:51:27.731Z,1021.61
2019-02-28T08:52:25.322Z,1021.56
2019-02-28T08:53:25.315Z,1021.56
2019-02-28T08:54:27.195Z,1021.55
2019-02-28T08:55:28.512Z,1021.57
2019-02-28T08:56:25.285Z,1021.54
2019-02-28T08:57:25.577Z,1021.59
2019-02-28T08:58:25.267Z,1021.55
2019-02-28T08:59:25.259Z,1021.57
2019-02-28T09:00:31.006Z,1021.52
2019-02-28T09:01:25.242Z,1021.52
2019-02-28T09:02:25.232Z,1021.56
2019-02-28T09:03:27.208Z,1021.59
2019-02-28T09:04:25.215Z,1021.45
2019-02-28T09:05:26.053Z,1021.52
2019-02-28T09:06:25.197Z,1021.52
2019-02-28T09:07:25.190Z,1021.42
2019-02-28T09:08:25.427Z,1021.4
2019-02-28T09:09:25.172Z,1021.41
2019-02-28T09:10:25.163Z,1021.37
2019-02-28T09:11:25.155Z,1021.26
2019-02-28T09:12:25.145Z,1021.24
2019-02-28T09:13:25.250Z,1021.17
2019-02-28T09:14:25.128Z,1021.08
2019-02-28T09:15:29.713Z,1021
2019-02-28T09:16:25.111Z,1020.99
2019-02-28T09:17:25.102Z,1021
2019-02-28T09:18:25.093Z,1021.03
2019-02-28T09:19:25.085Z,1020.98
2019-02-28T09:20:25.080Z,1021
2019-02-28T09:21:25.067Z,1020.91
2019-02-28T09:22:27.296Z,1020.88
2019-02-28T09:23:25.059Z,1020.84
2019-02-28T09:24:25.972Z,1020.84
2019-02-28T09:25:26.903Z,1020.89
2019-02-28T09:26:25.023Z,1020.85
2019-02-28T09:27:25.017Z,1020.84
2019-02-28T09:28:25.007Z,1020.79
2019-02-28T09:29:24.998Z,1020.68
2019-02-28T09:30:26.437Z,1020.6
2019-02-28T09:31:24.981Z,1020.57
2019-02-28T09:32:24.972Z,1020.61
2019-02-28T09:33:24.965Z,1020.6
2019-02-28T09:34:25.210Z,1020.61
2019-02-28T09:35:24.948Z,1020.71
2019-02-28T09:36:24.940Z,1020.7
2019-02-28T09:37:29.456Z,1020.63
2019-02-28T09:38:24.922Z,1020.65
2019-02-28T09:39:24.919Z,1020.68
2019-02-28T09:40:25.631Z,1020.68
2019-02-28T09:41:24.899Z,1020.66
2019-02-28T09:42:24.906Z,1020.65
2019-02-28T09:43:24.942Z,1020.61
2019-02-28T09:44:24.873Z,1020.52
2019-02-28T09:45:24.866Z,1020.53
2019-02-28T09:46:24.857Z,1020.54
2019-02-28T09:47:26.546Z,1020.53
2019-02-28T09:48:24.841Z,1020.52
2019-02-28T09:49:24.836Z,1020.52
2019-02-28T09:50:24.827Z,1020.43
2019-02-28T09:51:24.817Z,1020.42
2019-02-28T09:52:24.808Z,1020.41
2019-02-28T09:53:24.800Z,1020.4
2019-02-28T09:54:25.505Z,1020.43
2019-02-28T09:55:24.785Z,1020.43
2019-02-28T09:56:24.777Z,1020.46
2019-02-28T09:57:24.770Z,1020.4
2019-02-28T09:58:26.079Z,1020.38
2019-02-28T09:59:24.755Z,1020.38
2019-02-28T10:00:24.745Z,1020.32
2019-02-28T10:01:25.208Z,1020.32
2019-02-28T10:02:24.731Z,1020.26
2019-02-28T10:03:24.724Z,1020.32
2019-02-28T10:04:27.275Z,1020.35
2019-02-28T10:05:24.710Z,1020.35
2019-02-28T10:06:24.700Z,1020.33
2019-02-28T10:07:26.414Z,1020.34
2019-02-28T10:08:24.685Z,1020.32
2019-02-28T10:09:24.680Z,1020.34
2019-02-28T10:10:24.670Z,1020.15
2019-02-28T10:11:24.662Z,1020.18
2019-02-28T10:12:24.654Z,1020.19
2019-02-28T10:13:24.646Z,1020.15
2019-02-28T10:14:25.590Z,1020.11
2019-02-28T10:15:24.631Z,1020.1
2019-02-28T10:16:24.624Z,1020.04
2019-02-28T10:17:25.844Z,1019.96
2019-02-28T10:18:24.613Z,1019.95
2019-02-28T10:19:24.604Z,1019.91
2019-02-28T10:20:26.902Z,1020.04
2019-02-28T10:21:25.344Z,1020.09
2019-02-28T10:22:24.579Z,1020.11
2019-02-28T10:23:24.572Z,1020.16
2019-02-28T10:24:24.729Z,1020.15
2019-02-28T10:25:24.558Z,1020.16
2019-02-28T10:26:24.550Z,1020.11
2019-02-28T10:27:26.718Z,1020.05
2019-02-28T10:28:24.535Z,1020.12
2019-02-28T10:29:24.529Z,1020.09
2019-02-28T10:30:31.532Z,1020.14
2019-02-28T10:31:34.761Z,1020.14
2019-02-28T10:32:24.507Z,1020.19
2019-02-28T10:33:24.497Z,1020.15
2019-02-28T10:34:26.338Z,1020.14
2019-02-28T10:35:24.484Z,1020.19
2019-02-28T10:36:24.478Z,1020.17
2019-02-28T10:37:24.470Z,1020.15
2019-02-28T10:38:24.462Z,1020.22
2019-02-28T10:39:24.456Z,1020.28
2019-02-28T10:40:24.449Z,1020.24
2019-02-28T10:41:27.676Z,1020.26
2019-02-28T10:42:24.434Z,1020.17
2019-02-28T10:43:24.430Z,1020.21
2019-02-28T10:44:30.254Z,1020.23
2019-02-28T10:45:24.413Z,1020.18
2019-02-28T10:46:24.406Z,1020.29
2019-02-28T10:47:27.972Z,1020.37
2019-02-28T10:48:24.393Z,1020.42
2019-02-28T10:49:24.920Z,1020.44
2019-02-28T10:50:25.845Z,1020.44
2019-02-28T10:51:24.373Z,1020.47
2019-02-28T10:52:26.881Z,1020.42
2019-02-28T10:53:24.356Z,1020.42
2019-02-28T10:54:24.350Z,1020.39
2019-02-28T10:55:24.342Z,1020.39
2019-02-28T10:56:24.336Z,1020.41
2019-02-28T10:57:24.328Z,1020.41
2019-02-28T10:58:24.321Z,1020.41
2019-02-28T10:59:25.072Z,1020.4
2019-02-28T11:00:24.306Z,1020.4
2019-02-28T11:01:24.299Z,1020.42
2019-02-28T11:02:24.292Z,1020.38
2019-02-28T11:03:24.284Z,1020.44
2019-02-28T11:04:24.279Z,1020.38
2019-02-28T11:05:24.270Z,1020.4
2019-02-28T11:06:25.229Z,1020.37
2019-02-28T11:07:24.256Z,1020.41
2019-02-28T11:08:24.248Z,1020.35
2019-02-28T11:09:25.428Z,1020.35
2019-02-28T11:10:24.233Z,1020.3
2019-02-28T11:11:24.225Z,1020.29
2019-02-28T11:12:24.219Z,1020.31
2019-02-28T11:13:24.218Z,1020.29
2019-02-28T11:14:24.207Z,1020.25
2019-02-28T11:15:24.199Z,1020.3
2019-02-28T11:16:24.510Z,1020.27
2019-02-28T11:17:24.183Z,1020.26
2019-02-28T11:18:24.174Z,1020.22
2019-02-28T11:19:24.168Z,1020.23
2019-02-28T11:20:26.067Z,1020.28
2019-02-28T11:21:24.152Z,1020.22
2019-02-28T11:22:24.145Z,1020.25
2019-02-28T11:23:24.138Z,1020.2
2019-02-28T11:24:26.933Z,1020.19
2019-02-28T11:25:24.123Z,1020.14
2019-02-28T11:26:24.124Z,1020.21
2019-02-28T11:27:24.109Z,1020.21
2019-02-28T11:28:27.710Z,1020.18
2019-02-28T11:29:24.094Z,1020.24
2019-02-28T11:30:24.087Z,1020.32
2019-02-28T11:31:25.759Z,1020.33
2019-02-28T11:32:26.385Z,1020.32
2019-02-28T11:33:24.065Z,1020.31
2019-02-28T11:34:24.058Z,1020.36
2019-02-28T11:35:24.064Z,1020.29
2019-02-28T11:36:24.043Z,1020.27
2019-02-28T11:37:24.036Z,1020.31
2019-02-28T11:38:24.029Z,1020.26
2019-02-28T11:39:24.021Z,1020.33
2019-02-28T11:40:24.014Z,1020.39
2019-02-28T11:41:24.008Z,1020.4
2019-02-28T11:42:24.518Z,1020.35
2019-02-28T11:43:23.992Z,1020.47
2019-02-28T11:44:23.984Z,1020.48
2019-02-28T11:45:25.482Z,1020.43
2019-02-28T11:46:23.969Z,1020.49
2019-02-28T11:47:23.962Z,1020.45
2019-02-28T11:48:23.972Z,1020.38
2019-02-28T11:49:25.565Z,1020.38
2019-02-28T11:50:23.939Z,1020.34
2019-02-28T11:51:23.932Z,1020.3
2019-02-28T11:52:24.411Z,1020.24
2019-02-28T11:53:23.917Z,1020.16
2019-02-28T11:54:23.910Z,1020.14
2019-02-28T11:55:23.902Z,1020.15
2019-02-28T11:56:25.500Z,1020.13
2019-02-28T11:57:23.887Z,1020.17
2019-02-28T11:58:23.881Z,1020.05
2019-02-28T11:59:24.497Z,1020.05
2019-02-28T12:00:23.866Z,1019.95
2019-02-28T12:01:23.858Z,1019.94
2019-02-28T12:02:23.851Z,1019.88
2019-02-28T12:03:23.867Z,1019.86
2019-02-28T12:04:23.837Z,1019.83
2019-02-28T12:05:23.829Z,1019.8
2019-02-28T12:06:25.528Z,1019.84
2019-02-28T12:07:23.815Z,1019.8
2019-02-28T12:08:23.809Z,1019.93